sensor_id;sensor_type;location;lat;lon;timestamp;P1;durP1;ratioP1;P2;durP2;ratioP2
18726;SDS011;9492;51.888;5.186;2022-09-23T00:01:12;6.97;;;6.10;;
18726;SDS011;9492;51.888;5.186;2022-09-23T00:03:39;6.40;;;5.60;;
18726;SDS011;9492;51.888;5.186;2022-09-23T00:06:06;7.40;;;6.20;;
18726;SDS011;9492;51.888;5.186;2022-09-23T00:08:34;9.40;;;5.90;;
18726;SDS011;9492;51.888;5.186;2022-09-23T00:11:07;6.60;;;6.00;;
18726;SDS011;9492;51.888;5.186;2022-09-23T00:13:34;6.73;;;6.03;;
18726;SDS011;9492;51.888;5.186;2022-09-23T00:16:01;6.37;;;5.60;;
18726;SDS011;9492;51.888;5.186;2022-09-23T00:18:28;6.83;;;6.13;;
18726;SDS011;9492;51.888;5.186;2022-09-23T00:20:54;10.47;;;6.00;;
18726;SDS011;9492;51.888;5.186;2022-09-23T00:23:20;7.13;;;6.23;;
18726;SDS011;9492;51.888;5.186;2022-09-23T00:25:54;7.37;;;6.60;;
18726;SDS011;9492;51.888;5.186;2022-09-23T00:28:20;7.70;;;6.50;;
18726;SDS011;9492;51.888;5.186;2022-09-23T00:30:46;6.40;;;5.67;;
18726;SDS011;9492;51.888;5.186;2022-09-23T00:33:12;5.93;;;5.33;;
18726;SDS011;9492;51.888;5.186;2022-09-23T00:35:38;7.10;;;6.40;;
18726;SDS011;9492;51.888;5.186;2022-09-23T00:38:04;7.87;;;5.40;;
18726;SDS011;9492;51.888;5.186;2022-09-23T00:40:30;9.87;;;6.57;;
18726;SDS011;9492;51.888;5.186;2022-09-23T00:42:56;8.30;;;6.70;;
18726;SDS011;9492;51.888;5.186;2022-09-23T00:45:22;10.13;;;8.10;;
18726;SDS011;9492;51.888;5.186;2022-09-23T00:50:33;9.13;;;6.77;;
18726;SDS011;9492;51.888;5.186;2022-09-23T00:53:02;9.23;;;7.27;;
18726;SDS011;9492;51.888;5.186;2022-09-23T00:55:43;6.93;;;6.23;;
18726;SDS011;9492;51.888;5.186;2022-09-23T00:58:11;9.07;;;6.20;;
18726;SDS011;9492;51.888;5.186;2022-09-23T01:00:39;6.63;;;5.93;;
18726;SDS011;9492;51.888;5.186;2022-09-23T01:03:06;7.20;;;6.40;;
18726;SDS011;9492;51.888;5.186;2022-09-23T01:05:33;7.03;;;6.20;;
18726;SDS011;9492;51.888;5.186;2022-09-23T01:08:00;8.10;;;6.67;;
18726;SDS011;9492;51.888;5.186;2022-09-23T01:10:29;7.80;;;6.37;;
18726;SDS011;9492;51.888;5.186;2022-09-23T01:15:52;8.57;;;6.60;;
18726;SDS011;9492;51.888;5.186;2022-09-23T01:33:48;7.40;;;6.37;;
18726;SDS011;9492;51.888;5.186;2022-09-23T01:36:23;8.17;;;7.23;;
18726;SDS011;9492;51.888;5.186;2022-09-23T01:44:08;9.67;;;7.37;;
18726;SDS011;9492;51.888;5.186;2022-09-23T01:46:52;8.00;;;6.87;;
18726;SDS011;9492;51.888;5.186;2022-09-23T01:49:27;7.73;;;6.93;;
18726;SDS011;9492;51.888;5.186;2022-09-23T01:55:06;7.03;;;6.37;;
18726;SDS011;9492;51.888;5.186;2022-09-23T01:57:28;7.73;;;6.93;;
18726;SDS011;9492;51.888;5.186;2022-09-23T02:00:05;8.37;;;6.83;;
18726;SDS011;9492;51.888;5.186;2022-09-23T02:02:35;7.50;;;6.70;;
18726;SDS011;9492;51.888;5.186;2022-09-23T02:05:04;7.00;;;6.40;;
18726;SDS011;9492;51.888;5.186;2022-09-23T02:07:52;9.07;;;8.13;;
18726;SDS011;9492;51.888;5.186;2022-09-23T02:10:43;8.23;;;7.43;;
18726;SDS011;9492;51.888;5.186;2022-09-23T02:13:08;9.97;;;8.00;;
18726;SDS011;9492;51.888;5.186;2022-09-23T02:15:40;9.70;;;8.03;;
18726;SDS011;9492;51.888;5.186;2022-09-23T02:18:19;8.80;;;7.07;;
18726;SDS011;9492;51.888;5.186;2022-09-23T02:20:46;10.47;;;8.33;;
18726;SDS011;9492;51.888;5.186;2022-09-23T02:23:20;10.47;;;8.63;;
18726;SDS011;9492;51.888;5.186;2022-09-23T02:28:30;12.03;;;9.80;;
18726;SDS011;9492;51.888;5.186;2022-09-23T02:31:01;12.43;;;9.73;;
18726;SDS011;9492;51.888;5.186;2022-09-23T02:33:42;10.60;;;8.97;;
18726;SDS011;9492;51.888;5.186;2022-09-23T02:39:06;12.37;;;8.50;;
18726;SDS011;9492;51.888;5.186;2022-09-23T02:41:34;13.03;;;10.03;;
18726;SDS011;9492;51.888;5.186;2022-09-23T02:44:02;10.77;;;9.10;;
18726;SDS011;9492;51.888;5.186;2022-09-23T02:46:29;10.53;;;8.40;;
18726;SDS011;9492;51.888;5.186;2022-09-23T02:48:58;12.40;;;9.17;;
18726;SDS011;9492;51.888;5.186;2022-09-23T02:51:25;14.47;;;9.43;;
18726;SDS011;9492;51.888;5.186;2022-09-23T02:53:53;10.90;;;9.37;;
18726;SDS011;9492;51.888;5.186;2022-09-23T02:56:20;9.83;;;8.17;;
18726;SDS011;9492;51.888;5.186;2022-09-23T02:58:50;11.40;;;8.37;;
18726;SDS011;9492;51.888;5.186;2022-09-23T03:01:28;8.83;;;7.93;;
18726;SDS011;9492;51.888;5.186;2022-09-23T03:04:04;9.77;;;8.07;;
18726;SDS011;9492;51.888;5.186;2022-09-23T03:09:18;9.83;;;7.50;;
18726;SDS011;9492;51.888;5.186;2022-09-23T03:11:47;8.10;;;7.30;;
18726;SDS011;9492;51.888;5.186;2022-09-23T03:14:23;8.80;;;7.57;;
18726;SDS011;9492;51.888;5.186;2022-09-23T03:17:03;8.77;;;6.93;;
18726;SDS011;9492;51.888;5.186;2022-09-23T03:19:35;7.83;;;7.07;;
18726;SDS011;9492;51.888;5.186;2022-09-23T03:22:13;9.87;;;7.37;;
18726;SDS011;9492;51.888;5.186;2022-09-23T03:24:42;8.97;;;7.80;;
18726;SDS011;9492;51.888;5.186;2022-09-23T03:27:13;8.50;;;7.53;;
18726;SDS011;9492;51.888;5.186;2022-09-23T03:29:45;8.70;;;7.20;;
18726;SDS011;9492;51.888;5.186;2022-09-23T03:32:13;8.80;;;7.47;;
18726;SDS011;9492;51.888;5.186;2022-09-23T03:34:40;9.73;;;8.13;;
18726;SDS011;9492;51.888;5.186;2022-09-23T03:37:21;10.60;;;7.63;;
18726;SDS011;9492;51.888;5.186;2022-09-23T03:42:33;10.70;;;8.37;;
18726;SDS011;9492;51.888;5.186;2022-09-23T03:45:03;11.50;;;8.43;;
18726;SDS011;9492;51.888;5.186;2022-09-23T03:47:31;10.53;;;8.60;;
18726;SDS011;9492;51.888;5.186;2022-09-23T03:49:57;9.33;;;8.07;;
18726;SDS011;9492;51.888;5.186;2022-09-23T03:52:23;11.03;;;9.17;;
18726;SDS011;9492;51.888;5.186;2022-09-23T03:54:50;13.67;;;9.80;;
18726;SDS011;9492;51.888;5.186;2022-09-23T03:57:16;12.93;;;9.57;;
18726;SDS011;9492;51.888;5.186;2022-09-23T03:59:42;11.30;;;8.30;;
18726;SDS011;9492;51.888;5.186;2022-09-23T04:02:08;9.57;;;8.40;;
18726;SDS011;9492;51.888;5.186;2022-09-23T04:04:36;10.80;;;8.37;;
18726;SDS011;9492;51.888;5.186;2022-09-23T04:07:03;11.33;;;9.07;;
18726;SDS011;9492;51.888;5.186;2022-09-23T04:09:29;10.93;;;8.60;;
18726;SDS011;9492;51.888;5.186;2022-09-23T04:11:55;10.50;;;8.23;;
18726;SDS011;9492;51.888;5.186;2022-09-23T04:14:21;10.53;;;8.67;;
18726;SDS011;9492;51.888;5.186;2022-09-23T04:16:48;9.43;;;8.40;;
18726;SDS011;9492;51.888;5.186;2022-09-23T04:19:14;11.57;;;8.70;;
18726;SDS011;9492;51.888;5.186;2022-09-23T04:21:41;13.90;;;9.30;;
18726;SDS011;9492;51.888;5.186;2022-09-23T04:24:07;11.30;;;9.03;;
18726;SDS011;9492;51.888;5.186;2022-09-23T04:26:33;10.63;;;8.63;;
18726;SDS011;9492;51.888;5.186;2022-09-23T04:29:00;10.07;;;8.00;;
18726;SDS011;9492;51.888;5.186;2022-09-23T04:31:28;8.83;;;7.53;;
18726;SDS011;9492;51.888;5.186;2022-09-23T04:33:54;9.57;;;8.07;;
18726;SDS011;9492;51.888;5.186;2022-09-23T04:36:20;10.23;;;8.43;;
18726;SDS011;9492;51.888;5.186;2022-09-23T04:38:47;10.47;;;8.10;;
18726;SDS011;9492;51.888;5.186;2022-09-23T04:41:13;9.70;;;7.37;;
18726;SDS011;9492;51.888;5.186;2022-09-23T04:43:40;12.27;;;9.40;;
18726;SDS011;9492;51.888;5.186;2022-09-23T04:46:06;12.17;;;8.27;;
18726;SDS011;9492;51.888;5.186;2022-09-23T04:48:34;10.67;;;8.57;;
18726;SDS011;9492;51.888;5.186;2022-09-23T04:51:04;10.80;;;8.70;;
18726;SDS011;9492;51.888;5.186;2022-09-23T04:53:30;12.20;;;9.13;;
18726;SDS011;9492;51.888;5.186;2022-09-23T04:56:04;12.47;;;8.73;;
18726;SDS011;9492;51.888;5.186;2022-09-23T04:58:30;9.47;;;7.70;;
18726;SDS011;9492;51.888;5.186;2022-09-23T05:00:57;9.00;;;8.07;;
18726;SDS011;9492;51.888;5.186;2022-09-23T05:03:23;11.77;;;8.43;;
18726;SDS011;9492;51.888;5.186;2022-09-23T05:05:49;11.33;;;8.50;;
18726;SDS011;9492;51.888;5.186;2022-09-23T05:08:16;11.50;;;8.80;;
18726;SDS011;9492;51.888;5.186;2022-09-23T05:10:43;12.43;;;8.60;;
18726;SDS011;9492;51.888;5.186;2022-09-23T05:13:10;11.67;;;8.63;;
18726;SDS011;9492;51.888;5.186;2022-09-23T05:15:36;9.07;;;7.57;;
18726;SDS011;9492;51.888;5.186;2022-09-23T05:18:02;9.50;;;8.47;;
18726;SDS011;9492;51.888;5.186;2022-09-23T05:20:28;10.53;;;7.33;;
18726;SDS011;9492;51.888;5.186;2022-09-23T05:22:54;10.00;;;8.83;;
18726;SDS011;9492;51.888;5.186;2022-09-23T05:25:20;9.23;;;7.77;;
18726;SDS011;9492;51.888;5.186;2022-09-23T05:27:49;14.93;;;8.83;;
18726;SDS011;9492;51.888;5.186;2022-09-23T05:30:15;11.13;;;8.00;;
18726;SDS011;9492;51.888;5.186;2022-09-23T05:32:42;10.60;;;8.37;;
18726;SDS011;9492;51.888;5.186;2022-09-23T05:35:07;11.23;;;8.13;;
18726;SDS011;9492;51.888;5.186;2022-09-23T05:37:33;10.80;;;7.93;;
18726;SDS011;9492;51.888;5.186;2022-09-23T05:39:59;12.00;;;9.13;;
18726;SDS011;9492;51.888;5.186;2022-09-23T05:42:25;10.33;;;8.37;;
18726;SDS011;9492;51.888;5.186;2022-09-23T05:44:52;11.37;;;8.77;;
18726;SDS011;9492;51.888;5.186;2022-09-23T05:47:18;12.37;;;8.60;;
18726;SDS011;9492;51.888;5.186;2022-09-23T05:49:44;10.37;;;8.10;;
18726;SDS011;9492;51.888;5.186;2022-09-23T05:52:10;10.47;;;8.67;;
18726;SDS011;9492;51.888;5.186;2022-09-23T05:54:36;10.90;;;8.30;;
18726;SDS011;9492;51.888;5.186;2022-09-23T05:57:02;12.63;;;9.17;;
18726;SDS011;9492;51.888;5.186;2022-09-23T05:59:30;8.87;;;7.53;;
18726;SDS011;9492;51.888;5.186;2022-09-23T06:01:56;10.37;;;8.23;;
18726;SDS011;9492;51.888;5.186;2022-09-23T06:04:23;10.80;;;8.87;;
18726;SDS011;9492;51.888;5.186;2022-09-23T06:06:49;11.33;;;7.97;;
18726;SDS011;9492;51.888;5.186;2022-09-23T06:09:15;10.67;;;8.60;;
18726;SDS011;9492;51.888;5.186;2022-09-23T06:11:41;11.13;;;9.23;;
18726;SDS011;9492;51.888;5.186;2022-09-23T06:14:08;13.03;;;9.07;;
18726;SDS011;9492;51.888;5.186;2022-09-23T06:16:36;8.70;;;7.80;;
18726;SDS011;9492;51.888;5.186;2022-09-23T06:19:02;12.10;;;8.80;;
18726;SDS011;9492;51.888;5.186;2022-09-23T06:21:32;10.13;;;8.03;;
18726;SDS011;9492;51.888;5.186;2022-09-23T06:23:58;12.17;;;9.67;;
18726;SDS011;9492;51.888;5.186;2022-09-23T06:26:24;11.17;;;8.60;;
18726;SDS011;9492;51.888;5.186;2022-09-23T06:28:51;11.07;;;8.73;;
18726;SDS011;9492;51.888;5.186;2022-09-23T06:31:17;13.00;;;9.10;;
18726;SDS011;9492;51.888;5.186;2022-09-23T06:33:43;10.50;;;8.40;;
18726;SDS011;9492;51.888;5.186;2022-09-23T06:36:10;10.10;;;8.30;;
18726;SDS011;9492;51.888;5.186;2022-09-23T06:38:37;11.73;;;8.63;;
18726;SDS011;9492;51.888;5.186;2022-09-23T06:41:03;10.27;;;9.17;;
18726;SDS011;9492;51.888;5.186;2022-09-23T06:43:29;11.97;;;9.40;;
18726;SDS011;9492;51.888;5.186;2022-09-23T06:45:56;14.17;;;9.43;;
18726;SDS011;9492;51.888;5.186;2022-09-23T06:48:22;9.60;;;8.40;;
18726;SDS011;9492;51.888;5.186;2022-09-23T06:50:49;9.33;;;8.00;;
18726;SDS011;9492;51.888;5.186;2022-09-23T06:53:15;14.47;;;8.77;;
18726;SDS011;9492;51.888;5.186;2022-09-23T06:55:41;11.13;;;9.10;;
18726;SDS011;9492;51.888;5.186;2022-09-23T06:58:07;11.03;;;8.30;;
18726;SDS011;9492;51.888;5.186;2022-09-23T07:00:34;12.13;;;9.03;;
18726;SDS011;9492;51.888;5.186;2022-09-23T07:03:00;10.10;;;8.30;;
18726;SDS011;9492;51.888;5.186;2022-09-23T07:05:27;9.50;;;8.23;;
18726;SDS011;9492;51.888;5.186;2022-09-23T07:07:53;10.43;;;8.97;;
18726;SDS011;9492;51.888;5.186;2022-09-23T07:10:19;9.43;;;8.23;;
18726;SDS011;9492;51.888;5.186;2022-09-23T07:12:45;10.03;;;8.47;;
18726;SDS011;9492;51.888;5.186;2022-09-23T07:15:11;12.10;;;8.30;;
18726;SDS011;9492;51.888;5.186;2022-09-23T07:17:40;11.77;;;8.43;;
18726;SDS011;9492;51.888;5.186;2022-09-23T07:20:07;10.00;;;9.00;;
18726;SDS011;9492;51.888;5.186;2022-09-23T07:22:33;12.43;;;9.67;;
18726;SDS011;9492;51.888;5.186;2022-09-23T07:25:00;11.87;;;9.73;;
18726;SDS011;9492;51.888;5.186;2022-09-23T07:27:26;11.47;;;9.00;;
18726;SDS011;9492;51.888;5.186;2022-09-23T07:29:52;11.47;;;8.47;;
18726;SDS011;9492;51.888;5.186;2022-09-23T07:32:19;11.37;;;8.60;;
18726;SDS011;9492;51.888;5.186;2022-09-23T07:34:46;9.00;;;8.03;;
18726;SDS011;9492;51.888;5.186;2022-09-23T07:37:12;8.73;;;7.70;;
18726;SDS011;9492;51.888;5.186;2022-09-23T07:39:38;10.40;;;8.07;;
18726;SDS011;9492;51.888;5.186;2022-09-23T07:42:05;10.67;;;8.90;;
18726;SDS011;9492;51.888;5.186;2022-09-23T07:44:32;11.40;;;8.10;;
18726;SDS011;9492;51.888;5.186;2022-09-23T07:46:58;11.20;;;7.90;;
18726;SDS011;9492;51.888;5.186;2022-09-23T07:49:25;11.20;;;8.00;;
18726;SDS011;9492;51.888;5.186;2022-09-23T07:51:51;11.17;;;8.00;;
18726;SDS011;9492;51.888;5.186;2022-09-23T07:54:17;10.33;;;7.90;;
18726;SDS011;9492;51.888;5.186;2022-09-23T07:56:44;8.87;;;7.73;;
18726;SDS011;9492;51.888;5.186;2022-09-23T07:59:11;10.83;;;7.87;;
18726;SDS011;9492;51.888;5.186;2022-09-23T08:01:43;9.77;;;7.80;;
18726;SDS011;9492;51.888;5.186;2022-09-23T08:04:15;11.33;;;8.33;;
18726;SDS011;9492;51.888;5.186;2022-09-23T08:06:42;9.20;;;7.57;;
18726;SDS011;9492;51.888;5.186;2022-09-23T08:09:08;9.80;;;7.77;;
18726;SDS011;9492;51.888;5.186;2022-09-23T08:11:35;9.03;;;6.93;;
18726;SDS011;9492;51.888;5.186;2022-09-23T08:14:03;11.20;;;8.07;;
18726;SDS011;9492;51.888;5.186;2022-09-23T08:16:29;8.50;;;7.60;;
18726;SDS011;9492;51.888;5.186;2022-09-23T08:18:55;9.40;;;7.43;;
18726;SDS011;9492;51.888;5.186;2022-09-23T08:21:21;9.23;;;7.93;;
18726;SDS011;9492;51.888;5.186;2022-09-23T08:23:48;9.60;;;8.07;;
18726;SDS011;9492;51.888;5.186;2022-09-23T08:26:16;8.80;;;7.90;;
18726;SDS011;9492;51.888;5.186;2022-09-23T08:28:42;10.03;;;7.30;;
18726;SDS011;9492;51.888;5.186;2022-09-23T08:31:09;8.80;;;6.57;;
18726;SDS011;9492;51.888;5.186;2022-09-23T08:33:36;10.20;;;7.13;;
18726;SDS011;9492;51.888;5.186;2022-09-23T08:36:02;8.83;;;7.40;;
18726;SDS011;9492;51.888;5.186;2022-09-23T08:38:28;7.33;;;6.53;;
18726;SDS011;9492;51.888;5.186;2022-09-23T08:41:01;8.53;;;7.27;;
18726;SDS011;9492;51.888;5.186;2022-09-23T08:43:30;7.73;;;6.93;;
18726;SDS011;9492;51.888;5.186;2022-09-23T08:45:59;9.23;;;7.47;;
18726;SDS011;9492;51.888;5.186;2022-09-23T08:48:28;13.67;;;8.20;;
18726;SDS011;9492;51.888;5.186;2022-09-23T08:50:55;9.77;;;6.80;;
18726;SDS011;9492;51.888;5.186;2022-09-23T08:53:24;9.53;;;7.50;;
18726;SDS011;9492;51.888;5.186;2022-09-23T08:55:52;10.40;;;7.70;;
18726;SDS011;9492;51.888;5.186;2022-09-23T09:01:06;8.63;;;7.30;;
18726;SDS011;9492;51.888;5.186;2022-09-23T09:03:56;8.20;;;6.90;;
18726;SDS011;9492;51.888;5.186;2022-09-23T09:06:40;9.90;;;6.87;;
18726;SDS011;9492;51.888;5.186;2022-09-23T09:09:10;6.20;;;5.60;;
18726;SDS011;9492;51.888;5.186;2022-09-23T09:11:39;6.80;;;6.20;;
18726;SDS011;9492;51.888;5.186;2022-09-23T09:19:18;9.13;;;6.37;;
18726;SDS011;9492;51.888;5.186;2022-09-23T09:21:44;5.57;;;5.07;;
18726;SDS011;9492;51.888;5.186;2022-09-23T09:24:21;6.73;;;5.50;;
18726;SDS011;9492;51.888;5.186;2022-09-23T09:26:51;8.30;;;4.90;;
18726;SDS011;9492;51.888;5.186;2022-09-23T09:29:18;6.23;;;4.90;;
18726;SDS011;9492;51.888;5.186;2022-09-23T09:31:47;5.00;;;4.50;;
18726;SDS011;9492;51.888;5.186;2022-09-23T09:39:13;6.83;;;4.50;;
18726;SDS011;9492;51.888;5.186;2022-09-23T09:41:46;7.17;;;5.13;;
18726;SDS011;9492;51.888;5.186;2022-09-23T09:44:35;7.37;;;4.33;;
18726;SDS011;9492;51.888;5.186;2022-09-23T09:50:03;6.03;;;5.00;;
18726;SDS011;9492;51.888;5.186;2022-09-23T09:52:29;6.87;;;4.33;;
18726;SDS011;9492;51.888;5.186;2022-09-23T09:57:48;6.03;;;4.43;;
18726;SDS011;9492;51.888;5.186;2022-09-23T10:02:42;7.87;;;5.17;;
18726;SDS011;9492;51.888;5.186;2022-09-23T10:05:22;4.67;;;4.27;;
18726;SDS011;9492;51.888;5.186;2022-09-23T10:07:49;7.13;;;4.80;;
18726;SDS011;9492;51.888;5.186;2022-09-23T10:10:17;5.57;;;4.20;;
18726;SDS011;9492;51.888;5.186;2022-09-23T10:12:48;5.73;;;4.13;;
18726;SDS011;9492;51.888;5.186;2022-09-23T10:15:40;5.73;;;4.27;;
18726;SDS011;9492;51.888;5.186;2022-09-23T10:21:11;5.77;;;4.03;;
18726;SDS011;9492;51.888;5.186;2022-09-23T10:23:44;4.03;;;3.67;;
18726;SDS011;9492;51.888;5.186;2022-09-23T10:26:12;3.80;;;3.50;;
18726;SDS011;9492;51.888;5.186;2022-09-23T10:31:13;4.83;;;3.60;;
18726;SDS011;9492;51.888;5.186;2022-09-23T10:33:49;5.77;;;4.23;;
18726;SDS011;9492;51.888;5.186;2022-09-23T10:36:16;4.03;;;3.63;;
18726;SDS011;9492;51.888;5.186;2022-09-23T10:38:42;4.70;;;3.53;;
18726;SDS011;9492;51.888;5.186;2022-09-23T10:41:52;4.30;;;3.47;;
18726;SDS011;9492;51.888;5.186;2022-09-23T10:44:29;4.53;;;3.53;;
18726;SDS011;9492;51.888;5.186;2022-09-23T10:50:31;4.57;;;3.47;;
18726;SDS011;9492;51.888;5.186;2022-09-23T10:52:43;5.83;;;4.40;;
18726;SDS011;9492;51.888;5.186;2022-09-23T11:00:39;4.97;;;3.87;;
18726;SDS011;9492;51.888;5.186;2022-09-23T11:03:21;3.87;;;3.57;;
18726;SDS011;9492;51.888;5.186;2022-09-23T11:16:39;3.30;;;3.00;;
18726;SDS011;9492;51.888;5.186;2022-09-23T11:18:44;3.23;;;2.80;;
18726;SDS011;9492;51.888;5.186;2022-09-23T11:28:48;3.67;;;2.97;;
18726;SDS011;9492;51.888;5.186;2022-09-23T11:36:31;4.20;;;3.60;;
18726;SDS011;9492;51.888;5.186;2022-09-23T11:38:58;4.20;;;3.57;;
18726;SDS011;9492;51.888;5.186;2022-09-23T11:41:27;5.27;;;3.37;;
18726;SDS011;9492;51.888;5.186;2022-09-23T11:43:59;4.80;;;3.17;;
18726;SDS011;9492;51.888;5.186;2022-09-23T11:49:02;3.53;;;3.23;;
18726;SDS011;9492;51.888;5.186;2022-09-23T11:53:59;4.17;;;3.30;;
18726;SDS011;9492;51.888;5.186;2022-09-23T11:56:29;5.10;;;3.37;;
18726;SDS011;9492;51.888;5.186;2022-09-23T12:01:26;5.10;;;3.60;;
18726;SDS011;9492;51.888;5.186;2022-09-23T12:04:05;5.17;;;3.03;;
18726;SDS011;9492;51.888;5.186;2022-09-23T12:06:41;5.60;;;3.37;;
18726;SDS011;9492;51.888;5.186;2022-09-23T12:09:45;4.83;;;3.27;;
18726;SDS011;9492;51.888;5.186;2022-09-23T12:12:07;4.77;;;3.10;;
18726;SDS011;9492;51.888;5.186;2022-09-23T12:27:38;3.97;;;3.00;;
18726;SDS011;9492;51.888;5.186;2022-09-23T12:30:18;4.13;;;3.73;;
18726;SDS011;9492;51.888;5.186;2022-09-23T12:32:45;5.17;;;3.57;;
18726;SDS011;9492;51.888;5.186;2022-09-23T12:35:21;5.13;;;3.60;;
18726;SDS011;9492;51.888;5.186;2022-09-23T12:37:48;4.87;;;3.70;;
18726;SDS011;9492;51.888;5.186;2022-09-23T12:40:16;9.00;;;4.20;;
18726;SDS011;9492;51.888;5.186;2022-09-23T12:42:43;3.70;;;3.30;;
18726;SDS011;9492;51.888;5.186;2022-09-23T12:45:33;4.70;;;3.53;;
18726;SDS011;9492;51.888;5.186;2022-09-23T12:50:50;4.20;;;3.50;;
18726;SDS011;9492;51.888;5.186;2022-09-23T12:55:55;7.83;;;4.03;;
18726;SDS011;9492;51.888;5.186;2022-09-23T13:06:38;4.97;;;3.30;;
18726;SDS011;9492;51.888;5.186;2022-09-23T13:09:15;5.30;;;4.30;;
18726;SDS011;9492;51.888;5.186;2022-09-23T13:11:43;5.40;;;4.13;;
18726;SDS011;9492;51.888;5.186;2022-09-23T13:14:12;5.20;;;3.73;;
18726;SDS011;9492;51.888;5.186;2022-09-23T13:16:43;4.47;;;3.80;;
18726;SDS011;9492;51.888;5.186;2022-09-23T13:22:07;4.73;;;3.63;;
18726;SDS011;9492;51.888;5.186;2022-09-23T13:24:40;5.00;;;4.30;;
18726;SDS011;9492;51.888;5.186;2022-09-23T13:27:12;5.90;;;4.67;;
18726;SDS011;9492;51.888;5.186;2022-09-23T13:29:43;5.47;;;4.83;;
18726;SDS011;9492;51.888;5.186;2022-09-23T13:32:11;6.27;;;4.80;;
18726;SDS011;9492;51.888;5.186;2022-09-23T13:34:38;4.97;;;4.43;;
18726;SDS011;9492;51.888;5.186;2022-09-23T13:37:18;5.00;;;4.27;;
18726;SDS011;9492;51.888;5.186;2022-09-23T13:39:44;5.77;;;4.27;;
18726;SDS011;9492;51.888;5.186;2022-09-23T13:42:23;5.97;;;3.87;;
18726;SDS011;9492;51.888;5.186;2022-09-23T13:44:56;6.07;;;4.93;;
18726;SDS011;9492;51.888;5.186;2022-09-23T13:47:24;7.27;;;5.13;;
18726;SDS011;9492;51.888;5.186;2022-09-23T13:49:51;6.47;;;4.60;;
18726;SDS011;9492;51.888;5.186;2022-09-23T13:52:22;6.23;;;4.80;;
18726;SDS011;9492;51.888;5.186;2022-09-23T13:54:49;7.57;;;5.23;;
18726;SDS011;9492;51.888;5.186;2022-09-23T13:57:23;7.40;;;5.47;;
18726;SDS011;9492;51.888;5.186;2022-09-23T13:59:49;12.33;;;6.67;;
18726;SDS011;9492;51.888;5.186;2022-09-23T14:02:15;8.07;;;6.37;;
18726;SDS011;9492;51.888;5.186;2022-09-23T14:04:41;7.50;;;6.23;;
18726;SDS011;9492;51.888;5.186;2022-09-23T14:07:09;8.23;;;5.53;;
18726;SDS011;9492;51.888;5.186;2022-09-23T14:09:40;9.47;;;5.90;;
18726;SDS011;9492;51.888;5.186;2022-09-23T14:12:07;7.80;;;5.97;;
18726;SDS011;9492;51.888;5.186;2022-09-23T14:14:34;6.40;;;5.80;;
18726;SDS011;9492;51.888;5.186;2022-09-23T14:17:01;8.77;;;6.20;;
18726;SDS011;9492;51.888;5.186;2022-09-23T14:19:27;6.20;;;5.60;;
18726;SDS011;9492;51.888;5.186;2022-09-23T14:21:54;7.20;;;5.30;;
18726;SDS011;9492;51.888;5.186;2022-09-23T14:29:34;8.07;;;6.27;;
18726;SDS011;9492;51.888;5.186;2022-09-23T14:32:02;7.83;;;6.23;;
18726;SDS011;9492;51.888;5.186;2022-09-23T14:37:20;10.97;;;6.20;;
18726;SDS011;9492;51.888;5.186;2022-09-23T14:40:17;6.97;;;5.60;;
18726;SDS011;9492;51.888;5.186;2022-09-23T14:42:45;7.10;;;6.23;;
18726;SDS011;9492;51.888;5.186;2022-09-23T14:45:14;7.17;;;5.90;;
18726;SDS011;9492;51.888;5.186;2022-09-23T14:47:44;13.13;;;7.27;;
18726;SDS011;9492;51.888;5.186;2022-09-23T14:50:14;10.03;;;6.17;;
18726;SDS011;9492;51.888;5.186;2022-09-23T14:53:00;8.37;;;6.90;;
18726;SDS011;9492;51.888;5.186;2022-09-23T14:55:26;8.70;;;7.00;;
18726;SDS011;9492;51.888;5.186;2022-09-23T14:58:00;8.73;;;6.87;;
18726;SDS011;9492;51.888;5.186;2022-09-23T15:00:27;9.60;;;6.70;;
18726;SDS011;9492;51.888;5.186;2022-09-23T15:03:00;8.93;;;6.90;;
18726;SDS011;9492;51.888;5.186;2022-09-23T15:05:31;8.10;;;6.23;;
18726;SDS011;9492;51.888;5.186;2022-09-23T15:08:04;8.97;;;6.27;;
18726;SDS011;9492;51.888;5.186;2022-09-23T15:10:31;10.93;;;6.60;;
18726;SDS011;9492;51.888;5.186;2022-09-23T15:13:07;8.70;;;5.73;;
18726;SDS011;9492;51.888;5.186;2022-09-23T15:15:37;9.87;;;7.10;;
18726;SDS011;9492;51.888;5.186;2022-09-23T15:18:16;9.17;;;6.93;;
18726;SDS011;9492;51.888;5.186;2022-09-23T15:20:50;10.33;;;7.03;;
18726;SDS011;9492;51.888;5.186;2022-09-23T15:26:03;10.47;;;7.13;;
18726;SDS011;9492;51.888;5.186;2022-09-23T15:28:30;9.33;;;7.50;;
18726;SDS011;9492;51.888;5.186;2022-09-23T15:30:56;8.93;;;8.03;;
18726;SDS011;9492;51.888;5.186;2022-09-23T15:33:22;7.43;;;6.47;;
18726;SDS011;9492;51.888;5.186;2022-09-23T15:35:52;9.90;;;6.67;;
18726;SDS011;9492;51.888;5.186;2022-09-23T15:38:18;8.77;;;6.50;;
18726;SDS011;9492;51.888;5.186;2022-09-23T15:40:45;9.67;;;7.03;;
18726;SDS011;9492;51.888;5.186;2022-09-23T15:43:13;8.90;;;6.90;;
18726;SDS011;9492;51.888;5.186;2022-09-23T15:45:42;9.67;;;7.07;;
18726;SDS011;9492;51.888;5.186;2022-09-23T15:48:10;9.33;;;6.87;;
18726;SDS011;9492;51.888;5.186;2022-09-23T15:50:36;7.87;;;7.07;;
18726;SDS011;9492;51.888;5.186;2022-09-23T15:53:04;9.67;;;6.30;;
18726;SDS011;9492;51.888;5.186;2022-09-23T15:55:30;8.47;;;6.40;;
18726;SDS011;9492;51.888;5.186;2022-09-23T15:57:57;9.30;;;7.00;;
18726;SDS011;9492;51.888;5.186;2022-09-23T16:00:23;10.73;;;7.57;;
18726;SDS011;9492;51.888;5.186;2022-09-23T16:02:49;12.30;;;8.03;;
18726;SDS011;9492;51.888;5.186;2022-09-23T16:05:24;10.13;;;7.53;;
18726;SDS011;9492;51.888;5.186;2022-09-23T16:07:51;9.70;;;7.27;;
18726;SDS011;9492;51.888;5.186;2022-09-23T16:10:18;9.90;;;8.10;;
18726;SDS011;9492;51.888;5.186;2022-09-23T16:12:44;10.97;;;7.63;;
18726;SDS011;9492;51.888;5.186;2022-09-23T16:15:15;9.43;;;7.07;;
18726;SDS011;9492;51.888;5.186;2022-09-23T16:17:41;9.93;;;7.53;;
18726;SDS011;9492;51.888;5.186;2022-09-23T16:20:09;9.53;;;7.30;;
18726;SDS011;9492;51.888;5.186;2022-09-23T16:22:36;11.30;;;7.90;;
18726;SDS011;9492;51.888;5.186;2022-09-23T16:25:03;10.47;;;8.37;;
18726;SDS011;9492;51.888;5.186;2022-09-23T16:27:30;9.50;;;7.40;;
18726;SDS011;9492;51.888;5.186;2022-09-23T16:29:57;8.70;;;7.23;;
18726;SDS011;9492;51.888;5.186;2022-09-23T16:32:23;9.40;;;7.23;;
18726;SDS011;9492;51.888;5.186;2022-09-23T16:34:49;10.57;;;7.43;;
18726;SDS011;9492;51.888;5.186;2022-09-23T16:37:15;9.13;;;8.23;;
18726;SDS011;9492;51.888;5.186;2022-09-23T16:39:43;9.23;;;7.87;;
18726;SDS011;9492;51.888;5.186;2022-09-23T16:42:09;12.10;;;8.40;;
18726;SDS011;9492;51.888;5.186;2022-09-23T16:44:35;9.67;;;7.80;;
18726;SDS011;9492;51.888;5.186;2022-09-23T16:47:02;10.20;;;8.03;;
18726;SDS011;9492;51.888;5.186;2022-09-23T16:49:29;8.63;;;6.53;;
18726;SDS011;9492;51.888;5.186;2022-09-23T16:51:55;8.03;;;6.73;;
18726;SDS011;9492;51.888;5.186;2022-09-23T16:54:21;10.90;;;7.40;;
18726;SDS011;9492;51.888;5.186;2022-09-23T16:56:48;8.30;;;7.23;;
18726;SDS011;9492;51.888;5.186;2022-09-23T16:59:14;9.47;;;7.30;;
18726;SDS011;9492;51.888;5.186;2022-09-23T17:01:41;11.27;;;7.63;;
18726;SDS011;9492;51.888;5.186;2022-09-23T17:04:25;10.03;;;7.80;;
18726;SDS011;9492;51.888;5.186;2022-09-23T17:06:51;9.30;;;7.57;;
18726;SDS011;9492;51.888;5.186;2022-09-23T17:09:19;9.63;;;7.30;;
18726;SDS011;9492;51.888;5.186;2022-09-23T17:11:45;8.87;;;7.30;;
18726;SDS011;9492;51.888;5.186;2022-09-23T17:14:14;11.50;;;7.80;;
18726;SDS011;9492;51.888;5.186;2022-09-23T17:16:40;9.23;;;7.20;;
18726;SDS011;9492;51.888;5.186;2022-09-23T17:19:06;9.40;;;7.93;;
18726;SDS011;9492;51.888;5.186;2022-09-23T17:21:33;10.57;;;7.97;;
18726;SDS011;9492;51.888;5.186;2022-09-23T17:23:59;9.43;;;8.07;;
18726;SDS011;9492;51.888;5.186;2022-09-23T17:26:26;10.53;;;8.00;;
18726;SDS011;9492;51.888;5.186;2022-09-23T17:28:53;9.70;;;8.40;;
18726;SDS011;9492;51.888;5.186;2022-09-23T17:31:19;11.57;;;8.83;;
18726;SDS011;9492;51.888;5.186;2022-09-23T17:33:49;12.77;;;8.40;;